ADDS METAR Data

Data at: 1823 UTC 20 Jul 2018

METAR for:KPVC (Provincetown Muni, MA, US)
Text:KPVC 201756Z AUTO 15008KT 10SM CLR 26/14 A3019 RMK AO2 SLP223 T02610139 10267 20211 58003
Temperature: 26.1°C ( 79°F)
Dewpoint: 13.9°C ( 57°F) [RH = 47%]
Pressure (altimeter):30.19 inches Hg (1022.4 mb) [Sea level pressure: 1022.3 mb]
Winds:from the SSE (150 degrees) at 9 MPH (8 knots; 4.1 m/s)
Visibility:10 or more sm (16+ km)
Ceiling:at least 12,000 feet AGL
Clouds:sky clear below 12,000 feet AGL
QC Flag:automated observation with no human augmentation